< < Back
Terminal Aerodrome Forecast


Current Version              Previous Versions:   1  2  3  4  5  6  7  8  9  

Terminal Aerodrome Forecast

505
FTUS42 KGSP 191700 RRA
TAFCLT
TAF
KCLT 191742Z 1918/2018 11008KT P6SM SCT050 BKN120
     FM200200 08007KT P6SM BKN050
     FM200800 05007KT P6SM OVC025
     FM201500 04007KT P6SM SCT045=

Latest METAR

253
SAUS70 KWBC 192200 RRA
MTRCLT
METAR KCLT 192152Z 09009G16KT 10SM FEW070 SCT120 26/13 A3016 RMK AO2
SLP206 T02560133


USA.gov is the U.S. government's official web portal to all federal, state and local government web resources and services.